sensor_id;sensor_type;location;lat;lon;timestamp;P1;durP1;ratioP1;P2;durP2;ratioP2
74995;SDS011;63545;51.690;5.202;2022-11-20T00:02:24;22.20;;;11.87;;
74995;SDS011;63545;51.690;5.202;2022-11-20T00:04:50;22.87;;;11.80;;
74995;SDS011;63545;51.690;5.202;2022-11-20T00:07:15;21.30;;;10.95;;
74995;SDS011;63545;51.690;5.202;2022-11-20T00:09:40;24.77;;;11.70;;
74995;SDS011;63545;51.690;5.202;2022-11-20T00:12:06;22.23;;;11.37;;
74995;SDS011;63545;51.690;5.202;2022-11-20T00:14:31;20.50;;;10.87;;
74995;SDS011;63545;51.690;5.202;2022-11-20T00:16:56;24.70;;;11.43;;
74995;SDS011;63545;51.690;5.202;2022-11-20T00:19:21;21.90;;;11.53;;
74995;SDS011;63545;51.690;5.202;2022-11-20T00:21:47;23.70;;;11.63;;
74995;SDS011;63545;51.690;5.202;2022-11-20T00:24:12;24.33;;;11.60;;
74995;SDS011;63545;51.690;5.202;2022-11-20T00:26:38;22.58;;;11.60;;
74995;SDS011;63545;51.690;5.202;2022-11-20T00:29:03;24.30;;;12.47;;
74995;SDS011;63545;51.690;5.202;2022-11-20T00:31:29;23.87;;;11.70;;
74995;SDS011;63545;51.690;5.202;2022-11-20T00:33:55;26.60;;;12.75;;
74995;SDS011;63545;51.690;5.202;2022-11-20T00:36:21;24.03;;;12.73;;
74995;SDS011;63545;51.690;5.202;2022-11-20T00:38:52;26.15;;;12.15;;
74995;SDS011;63545;51.690;5.202;2022-11-20T00:41:18;25.95;;;12.52;;
74995;SDS011;63545;51.690;5.202;2022-11-20T00:43:43;23.80;;;11.43;;
74995;SDS011;63545;51.690;5.202;2022-11-20T00:46:10;23.50;;;11.33;;
74995;SDS011;63545;51.690;5.202;2022-11-20T00:48:37;22.35;;;11.40;;
74995;SDS011;63545;51.690;5.202;2022-11-20T00:51:03;24.93;;;11.77;;
74995;SDS011;63545;51.690;5.202;2022-11-20T00:53:29;23.77;;;12.30;;
74995;SDS011;63545;51.690;5.202;2022-11-20T00:55:56;26.40;;;12.15;;
74995;SDS011;63545;51.690;5.202;2022-11-20T00:58:24;27.58;;;11.93;;
74995;SDS011;63545;51.690;5.202;2022-11-20T01:00:50;24.45;;;11.55;;
74995;SDS011;63545;51.690;5.202;2022-11-20T01:03:16;24.00;;;12.10;;
74995;SDS011;63545;51.690;5.202;2022-11-20T01:05:42;24.25;;;11.63;;
74995;SDS011;63545;51.690;5.202;2022-11-20T01:08:08;23.98;;;11.98;;
74995;SDS011;63545;51.690;5.202;2022-11-20T01:10:33;22.60;;;11.40;;
74995;SDS011;63545;51.690;5.202;2022-11-20T01:12:58;23.03;;;11.53;;
74995;SDS011;63545;51.690;5.202;2022-11-20T01:15:42;24.25;;;12.30;;
74995;SDS011;63545;51.690;5.202;2022-11-20T01:18:07;25.73;;;12.43;;
74995;SDS011;63545;51.690;5.202;2022-11-20T01:20:36;23.53;;;11.97;;
74995;SDS011;63545;51.690;5.202;2022-11-20T01:23:04;22.92;;;12.02;;
74995;SDS011;63545;51.690;5.202;2022-11-20T01:25:30;27.52;;;13.75;;
74995;SDS011;63545;51.690;5.202;2022-11-20T01:27:55;22.50;;;11.27;;
74995;SDS011;63545;51.690;5.202;2022-11-20T01:30:21;23.20;;;11.23;;
74995;SDS011;63545;51.690;5.202;2022-11-20T01:32:46;26.47;;;13.00;;
74995;SDS011;63545;51.690;5.202;2022-11-20T01:35:11;24.90;;;11.63;;
74995;SDS011;63545;51.690;5.202;2022-11-20T01:37:37;24.77;;;11.90;;
74995;SDS011;63545;51.690;5.202;2022-11-20T01:40:02;23.17;;;11.67;;
74995;SDS011;63545;51.690;5.202;2022-11-20T01:42:28;27.88;;;12.48;;
74995;SDS011;63545;51.690;5.202;2022-11-20T01:48:15;25.83;;;11.55;;
74995;SDS011;63545;51.690;5.202;2022-11-20T01:50:41;24.13;;;11.73;;
74995;SDS011;63545;51.690;5.202;2022-11-20T01:53:08;25.63;;;12.87;;
74995;SDS011;63545;51.690;5.202;2022-11-20T01:55:36;22.42;;;11.45;;
74995;SDS011;63545;51.690;5.202;2022-11-20T01:58:05;24.52;;;12.68;;
74995;SDS011;63545;51.690;5.202;2022-11-20T02:00:31;25.67;;;11.95;;
74995;SDS011;63545;51.690;5.202;2022-11-20T02:02:57;24.07;;;11.90;;
74995;SDS011;63545;51.690;5.202;2022-11-20T02:05:27;24.08;;;11.82;;
74995;SDS011;63545;51.690;5.202;2022-11-20T02:07:56;23.98;;;12.18;;
74995;SDS011;63545;51.690;5.202;2022-11-20T02:10:22;23.57;;;12.50;;
74995;SDS011;63545;51.690;5.202;2022-11-20T02:12:47;25.83;;;12.27;;
74995;SDS011;63545;51.690;5.202;2022-11-20T02:15:32;20.80;;;11.25;;
74995;SDS011;63545;51.690;5.202;2022-11-20T02:17:58;23.60;;;11.70;;
74995;SDS011;63545;51.690;5.202;2022-11-20T02:20:23;26.63;;;11.77;;
74995;SDS011;63545;51.690;5.202;2022-11-20T02:22:57;24.17;;;12.23;;
74995;SDS011;63545;51.690;5.202;2022-11-20T02:25:25;25.20;;;12.02;;
74995;SDS011;63545;51.690;5.202;2022-11-20T02:27:52;27.02;;;12.45;;
74995;SDS011;63545;51.690;5.202;2022-11-20T02:30:17;23.17;;;11.43;;
74995;SDS011;63545;51.690;5.202;2022-11-20T02:32:42;24.13;;;11.67;;
74995;SDS011;63545;51.690;5.202;2022-11-20T02:37:34;24.50;;;11.40;;
74995;SDS011;63545;51.690;5.202;2022-11-20T02:40:01;23.45;;;11.80;;
74995;SDS011;63545;51.690;5.202;2022-11-20T02:42:26;24.00;;;11.90;;
74995;SDS011;63545;51.690;5.202;2022-11-20T02:44:52;26.07;;;12.20;;
74995;SDS011;63545;51.690;5.202;2022-11-20T02:47:17;24.53;;;11.67;;
74995;SDS011;63545;51.690;5.202;2022-11-20T02:49:42;24.03;;;12.23;;
74995;SDS011;63545;51.690;5.202;2022-11-20T02:52:08;25.43;;;12.17;;
74995;SDS011;63545;51.690;5.202;2022-11-20T02:54:33;25.88;;;12.05;;
74995;SDS011;63545;51.690;5.202;2022-11-20T02:56:58;28.05;;;12.63;;
74995;SDS011;63545;51.690;5.202;2022-11-20T02:59:23;25.63;;;12.77;;
74995;SDS011;63545;51.690;5.202;2022-11-20T03:01:49;27.90;;;12.43;;
74995;SDS011;63545;51.690;5.202;2022-11-20T03:04:14;25.20;;;12.17;;
74995;SDS011;63545;51.690;5.202;2022-11-20T03:06:40;25.60;;;12.33;;
74995;SDS011;63545;51.690;5.202;2022-11-20T03:09:05;25.57;;;12.53;;
74995;SDS011;63545;51.690;5.202;2022-11-20T03:11:30;24.92;;;11.75;;
74995;SDS011;63545;51.690;5.202;2022-11-20T03:13:56;27.00;;;13.40;;
74995;SDS011;63545;51.690;5.202;2022-11-20T03:16:22;23.87;;;11.77;;
74995;SDS011;63545;51.690;5.202;2022-11-20T03:18:47;24.55;;;12.32;;
74995;SDS011;63545;51.690;5.202;2022-11-20T03:21:13;25.05;;;11.60;;
74995;SDS011;63545;51.690;5.202;2022-11-20T03:23:39;23.73;;;12.40;;
74995;SDS011;63545;51.690;5.202;2022-11-20T03:28:34;28.15;;;13.27;;
74995;SDS011;63545;51.690;5.202;2022-11-20T03:31:04;26.40;;;12.73;;
74995;SDS011;63545;51.690;5.202;2022-11-20T03:33:37;22.77;;;11.60;;
74995;SDS011;63545;51.690;5.202;2022-11-20T03:36:03;26.05;;;12.90;;
74995;SDS011;63545;51.690;5.202;2022-11-20T03:38:30;27.15;;;12.73;;
74995;SDS011;63545;51.690;5.202;2022-11-20T03:41:03;26.35;;;12.63;;
74995;SDS011;63545;51.690;5.202;2022-11-20T03:43:30;25.83;;;13.02;;
74995;SDS011;63545;51.690;5.202;2022-11-20T03:45:55;27.00;;;13.07;;
74995;SDS011;63545;51.690;5.202;2022-11-20T03:48:21;24.00;;;12.85;;
74995;SDS011;63545;51.690;5.202;2022-11-20T03:50:46;28.70;;;14.07;;
74995;SDS011;63545;51.690;5.202;2022-11-20T03:53:13;27.73;;;14.18;;
74995;SDS011;63545;51.690;5.202;2022-11-20T03:55:39;31.83;;;13.93;;
74995;SDS011;63545;51.690;5.202;2022-11-20T03:58:04;30.10;;;15.27;;
74995;SDS011;63545;51.690;5.202;2022-11-20T04:00:29;29.33;;;14.77;;
74995;SDS011;63545;51.690;5.202;2022-11-20T04:02:57;32.63;;;15.17;;
74995;SDS011;63545;51.690;5.202;2022-11-20T04:05:23;30.33;;;14.02;;
74995;SDS011;63545;51.690;5.202;2022-11-20T04:07:49;25.07;;;13.87;;
74995;SDS011;63545;51.690;5.202;2022-11-20T04:10:14;27.80;;;12.70;;
74995;SDS011;63545;51.690;5.202;2022-11-20T04:12:39;27.27;;;13.03;;
74995;SDS011;63545;51.690;5.202;2022-11-20T04:15:05;27.30;;;12.63;;
74995;SDS011;63545;51.690;5.202;2022-11-20T04:17:30;24.70;;;12.23;;
74995;SDS011;63545;51.690;5.202;2022-11-20T04:19:56;26.25;;;12.32;;
74995;SDS011;63545;51.690;5.202;2022-11-20T04:22:21;24.90;;;12.33;;
74995;SDS011;63545;51.690;5.202;2022-11-20T04:24:46;28.60;;;11.63;;
74995;SDS011;63545;51.690;5.202;2022-11-20T04:27:11;27.27;;;11.63;;
74995;SDS011;63545;51.690;5.202;2022-11-20T04:29:37;24.07;;;12.13;;
74995;SDS011;63545;51.690;5.202;2022-11-20T04:32:02;25.10;;;12.33;;
74995;SDS011;63545;51.690;5.202;2022-11-20T04:34:27;28.27;;;12.90;;
74995;SDS011;63545;51.690;5.202;2022-11-20T04:36:53;25.13;;;12.47;;
74995;SDS011;63545;51.690;5.202;2022-11-20T04:39:18;30.57;;;13.23;;
74995;SDS011;63545;51.690;5.202;2022-11-20T04:41:43;24.27;;;11.98;;
74995;SDS011;63545;51.690;5.202;2022-11-20T04:44:09;26.00;;;11.57;;
74995;SDS011;63545;51.690;5.202;2022-11-20T04:46:35;26.30;;;12.63;;
74995;SDS011;63545;51.690;5.202;2022-11-20T04:49:02;24.38;;;12.45;;
74995;SDS011;63545;51.690;5.202;2022-11-20T04:51:28;27.37;;;12.50;;
74995;SDS011;63545;51.690;5.202;2022-11-20T04:53:53;25.67;;;12.25;;
74995;SDS011;63545;51.690;5.202;2022-11-20T04:56:19;25.90;;;11.77;;
74995;SDS011;63545;51.690;5.202;2022-11-20T04:58:44;25.10;;;12.37;;
74995;SDS011;63545;51.690;5.202;2022-11-20T05:01:11;27.93;;;12.77;;
74995;SDS011;63545;51.690;5.202;2022-11-20T05:03:37;25.65;;;12.30;;
74995;SDS011;63545;51.690;5.202;2022-11-20T05:06:03;24.17;;;12.00;;
74995;SDS011;63545;51.690;5.202;2022-11-20T05:08:29;26.50;;;12.40;;
74995;SDS011;63545;51.690;5.202;2022-11-20T05:11:09;24.45;;;12.15;;
74995;SDS011;63545;51.690;5.202;2022-11-20T05:13:36;27.92;;;11.50;;
74995;SDS011;63545;51.690;5.202;2022-11-20T05:16:02;30.57;;;12.47;;
74995;SDS011;63545;51.690;5.202;2022-11-20T05:18:28;27.55;;;12.40;;
74995;SDS011;63545;51.690;5.202;2022-11-20T05:20:54;24.90;;;11.77;;
74995;SDS011;63545;51.690;5.202;2022-11-20T05:23:21;24.00;;;11.77;;
74995;SDS011;63545;51.690;5.202;2022-11-20T05:25:46;21.90;;;11.40;;
74995;SDS011;63545;51.690;5.202;2022-11-20T05:28:11;24.83;;;11.30;;
74995;SDS011;63545;51.690;5.202;2022-11-20T05:30:37;25.53;;;11.03;;
74995;SDS011;63545;51.690;5.202;2022-11-20T05:33:02;22.90;;;11.23;;
74995;SDS011;63545;51.690;5.202;2022-11-20T05:35:27;22.57;;;10.63;;
74995;SDS011;63545;51.690;5.202;2022-11-20T05:37:53;23.15;;;10.43;;
74995;SDS011;63545;51.690;5.202;2022-11-20T05:40:18;24.70;;;11.97;;
74995;SDS011;63545;51.690;5.202;2022-11-20T05:42:44;23.57;;;10.70;;
74995;SDS011;63545;51.690;5.202;2022-11-20T05:45:09;23.40;;;11.10;;
74995;SDS011;63545;51.690;5.202;2022-11-20T05:47:34;21.37;;;11.13;;
74995;SDS011;63545;51.690;5.202;2022-11-20T05:50:00;25.30;;;11.10;;
74995;SDS011;63545;51.690;5.202;2022-11-20T05:52:28;22.13;;;10.65;;
74995;SDS011;63545;51.690;5.202;2022-11-20T05:54:54;23.42;;;11.10;;
74995;SDS011;63545;51.690;5.202;2022-11-20T05:57:19;20.50;;;10.23;;
74995;SDS011;63545;51.690;5.202;2022-11-20T05:59:45;21.23;;;10.33;;
74995;SDS011;63545;51.690;5.202;2022-11-20T06:02:10;22.50;;;10.77;;
74995;SDS011;63545;51.690;5.202;2022-11-20T06:04:35;23.35;;;11.05;;
74995;SDS011;63545;51.690;5.202;2022-11-20T06:07:01;20.95;;;10.30;;
74995;SDS011;63545;51.690;5.202;2022-11-20T06:09:26;21.40;;;10.50;;
74995;SDS011;63545;51.690;5.202;2022-11-20T06:11:51;25.40;;;11.57;;
74995;SDS011;63545;51.690;5.202;2022-11-20T06:14:17;21.63;;;11.23;;
74995;SDS011;63545;51.690;5.202;2022-11-20T06:16:42;24.27;;;11.73;;
74995;SDS011;63545;51.690;5.202;2022-11-20T06:19:07;24.17;;;11.30;;
74995;SDS011;63545;51.690;5.202;2022-11-20T06:21:32;21.67;;;11.37;;
74995;SDS011;63545;51.690;5.202;2022-11-20T06:23:58;23.00;;;10.77;;
74995;SDS011;63545;51.690;5.202;2022-11-20T06:26:24;22.73;;;11.00;;
74995;SDS011;63545;51.690;5.202;2022-11-20T06:28:51;22.35;;;11.35;;
74995;SDS011;63545;51.690;5.202;2022-11-20T06:31:18;23.50;;;11.60;;
74995;SDS011;63545;51.690;5.202;2022-11-20T06:33:45;21.88;;;11.77;;
74995;SDS011;63545;51.690;5.202;2022-11-20T06:36:11;26.08;;;12.82;;
74995;SDS011;63545;51.690;5.202;2022-11-20T06:38:37;27.17;;;12.20;;
74995;SDS011;63545;51.690;5.202;2022-11-20T06:41:03;27.90;;;12.75;;
74995;SDS011;63545;51.690;5.202;2022-11-20T06:43:29;30.10;;;13.70;;
74995;SDS011;63545;51.690;5.202;2022-11-20T06:45:55;26.07;;;12.97;;
74995;SDS011;63545;51.690;5.202;2022-11-20T06:48:21;26.42;;;13.07;;
74995;SDS011;63545;51.690;5.202;2022-11-20T06:50:48;27.20;;;13.43;;
74995;SDS011;63545;51.690;5.202;2022-11-20T06:53:13;26.85;;;13.07;;
74995;SDS011;63545;51.690;5.202;2022-11-20T06:55:41;26.93;;;13.03;;
74995;SDS011;63545;51.690;5.202;2022-11-20T06:58:08;25.92;;;13.73;;
74995;SDS011;63545;51.690;5.202;2022-11-20T07:00:34;25.83;;;13.63;;
74995;SDS011;63545;51.690;5.202;2022-11-20T07:03:02;25.80;;;12.90;;
74995;SDS011;63545;51.690;5.202;2022-11-20T07:05:31;25.27;;;12.55;;
74995;SDS011;63545;51.690;5.202;2022-11-20T07:07:56;26.17;;;12.27;;
74995;SDS011;63545;51.690;5.202;2022-11-20T07:10:22;28.55;;;13.25;;
74995;SDS011;63545;51.690;5.202;2022-11-20T07:12:51;25.23;;;13.43;;
74995;SDS011;63545;51.690;5.202;2022-11-20T07:15:17;28.70;;;13.82;;
74995;SDS011;63545;51.690;5.202;2022-11-20T07:17:43;29.02;;;14.02;;
74995;SDS011;63545;51.690;5.202;2022-11-20T07:20:09;26.93;;;13.20;;
74995;SDS011;63545;51.690;5.202;2022-11-20T07:22:34;31.55;;;14.57;;
74995;SDS011;63545;51.690;5.202;2022-11-20T07:25:00;27.87;;;14.33;;
74995;SDS011;63545;51.690;5.202;2022-11-20T07:27:26;27.13;;;13.07;;
74995;SDS011;63545;51.690;5.202;2022-11-20T07:29:51;29.30;;;14.63;;
74995;SDS011;63545;51.690;5.202;2022-11-20T07:32:17;29.67;;;14.73;;
74995;SDS011;63545;51.690;5.202;2022-11-20T07:34:42;28.43;;;14.33;;
74995;SDS011;63545;51.690;5.202;2022-11-20T07:37:07;32.00;;;14.37;;
74995;SDS011;63545;51.690;5.202;2022-11-20T07:39:33;31.10;;;14.80;;
74995;SDS011;63545;51.690;5.202;2022-11-20T07:41:58;29.98;;;15.40;;
74995;SDS011;63545;51.690;5.202;2022-11-20T07:44:23;29.50;;;15.48;;
74995;SDS011;63545;51.690;5.202;2022-11-20T07:46:49;28.73;;;14.50;;
74995;SDS011;63545;51.690;5.202;2022-11-20T07:49:14;31.17;;;15.10;;
74995;SDS011;63545;51.690;5.202;2022-11-20T07:51:39;29.00;;;14.70;;
74995;SDS011;63545;51.690;5.202;2022-11-20T07:54:05;29.27;;;13.97;;
74995;SDS011;63545;51.690;5.202;2022-11-20T07:56:30;30.20;;;14.00;;
74995;SDS011;63545;51.690;5.202;2022-11-20T07:58:55;32.57;;;15.43;;
74995;SDS011;63545;51.690;5.202;2022-11-20T08:01:21;33.60;;;16.10;;
74995;SDS011;63545;51.690;5.202;2022-11-20T08:03:46;31.80;;;15.30;;
74995;SDS011;63545;51.690;5.202;2022-11-20T08:06:11;30.40;;;14.30;;
74995;SDS011;63545;51.690;5.202;2022-11-20T08:08:37;29.20;;;14.50;;
74995;SDS011;63545;51.690;5.202;2022-11-20T08:11:04;27.05;;;14.10;;
74995;SDS011;63545;51.690;5.202;2022-11-20T08:13:50;30.95;;;14.27;;
74995;SDS011;63545;51.690;5.202;2022-11-20T08:16:34;27.83;;;14.07;;
74995;SDS011;63545;51.690;5.202;2022-11-20T08:18:59;27.92;;;13.52;;
74995;SDS011;63545;51.690;5.202;2022-11-20T08:21:24;27.97;;;14.80;;
74995;SDS011;63545;51.690;5.202;2022-11-20T08:23:51;30.47;;;14.37;;
74995;SDS011;63545;51.690;5.202;2022-11-20T08:26:16;32.38;;;15.10;;
74995;SDS011;63545;51.690;5.202;2022-11-20T08:28:42;34.43;;;15.10;;
74995;SDS011;63545;51.690;5.202;2022-11-20T08:31:07;28.13;;;14.87;;
74995;SDS011;63545;51.690;5.202;2022-11-20T08:33:34;31.15;;;15.52;;
74995;SDS011;63545;51.690;5.202;2022-11-20T08:36:00;29.37;;;15.10;;
74995;SDS011;63545;51.690;5.202;2022-11-20T08:38:29;30.40;;;14.50;;
74995;SDS011;63545;51.690;5.202;2022-11-20T08:40:58;32.72;;;15.98;;
74995;SDS011;63545;51.690;5.202;2022-11-20T08:43:44;28.77;;;15.05;;
74995;SDS011;63545;51.690;5.202;2022-11-20T08:46:09;30.08;;;15.80;;
74995;SDS011;63545;51.690;5.202;2022-11-20T08:48:35;30.33;;;15.90;;
74995;SDS011;63545;51.690;5.202;2022-11-20T08:51:00;30.73;;;16.13;;
74995;SDS011;63545;51.690;5.202;2022-11-20T08:53:26;32.97;;;16.47;;
74995;SDS011;63545;51.690;5.202;2022-11-20T08:55:52;29.27;;;15.57;;
74995;SDS011;63545;51.690;5.202;2022-11-20T08:58:17;29.87;;;16.53;;
74995;SDS011;63545;51.690;5.202;2022-11-20T09:00:43;38.17;;;17.63;;
74995;SDS011;63545;51.690;5.202;2022-11-20T09:03:08;32.80;;;16.67;;
74995;SDS011;63545;51.690;5.202;2022-11-20T09:05:33;31.57;;;16.27;;
74995;SDS011;63545;51.690;5.202;2022-11-20T09:07:59;37.13;;;17.13;;
74995;SDS011;63545;51.690;5.202;2022-11-20T09:10:25;33.53;;;16.87;;
74995;SDS011;63545;51.690;5.202;2022-11-20T09:12:53;33.10;;;17.98;;
74995;SDS011;63545;51.690;5.202;2022-11-20T09:15:20;36.15;;;17.27;;
74995;SDS011;63545;51.690;5.202;2022-11-20T09:17:57;32.67;;;17.40;;
74995;SDS011;63545;51.690;5.202;2022-11-20T09:20:23;36.73;;;16.50;;
74995;SDS011;63545;51.690;5.202;2022-11-20T09:22:49;41.85;;;17.75;;
74995;SDS011;63545;51.690;5.202;2022-11-20T09:25:14;33.10;;;17.97;;
74995;SDS011;63545;51.690;5.202;2022-11-20T09:27:40;36.55;;;19.02;;
74995;SDS011;63545;51.690;5.202;2022-11-20T09:30:09;32.10;;;17.63;;
74995;SDS011;63545;51.690;5.202;2022-11-20T09:32:35;35.83;;;18.08;;
74995;SDS011;63545;51.690;5.202;2022-11-20T09:35:01;36.83;;;19.63;;
74995;SDS011;63545;51.690;5.202;2022-11-20T09:37:27;37.03;;;19.08;;
74995;SDS011;63545;51.690;5.202;2022-11-20T09:39:52;35.30;;;18.90;;
74995;SDS011;63545;51.690;5.202;2022-11-20T09:45:05;38.60;;;19.35;;
74995;SDS011;63545;51.690;5.202;2022-11-20T09:50:32;39.40;;;19.30;;
74995;SDS011;63545;51.690;5.202;2022-11-20T09:55:54;37.08;;;19.85;;
74995;SDS011;63545;51.690;5.202;2022-11-20T09:59:03;41.75;;;20.17;;
74995;SDS011;63545;51.690;5.202;2022-11-20T10:01:17;38.63;;;19.23;;
74995;SDS011;63545;51.690;5.202;2022-11-20T10:06:10;33.87;;;18.37;;
74995;SDS011;63545;51.690;5.202;2022-11-20T10:08:43;37.50;;;19.52;;
74995;SDS011;63545;51.690;5.202;2022-11-20T10:11:17;41.58;;;19.45;;
74995;SDS011;63545;51.690;5.202;2022-11-20T10:25:17;45.03;;;20.83;;
74995;SDS011;63545;51.690;5.202;2022-11-20T10:30:48;42.08;;;20.13;;
74995;SDS011;63545;51.690;5.202;2022-11-20T10:33:21;37.65;;;19.15;;
74995;SDS011;63545;51.690;5.202;2022-11-20T10:38:33;41.63;;;20.70;;
74995;SDS011;63545;51.690;5.202;2022-11-20T10:41:01;44.78;;;21.70;;
74995;SDS011;63545;51.690;5.202;2022-11-20T10:43:47;48.72;;;22.88;;
74995;SDS011;63545;51.690;5.202;2022-11-20T10:46:17;47.15;;;22.25;;
74995;SDS011;63545;51.690;5.202;2022-11-20T10:48:44;44.75;;;21.00;;
74995;SDS011;63545;51.690;5.202;2022-11-20T10:56:41;46.47;;;20.45;;
74995;SDS011;63545;51.690;5.202;2022-11-20T11:01:41;44.23;;;21.00;;
74995;SDS011;63545;51.690;5.202;2022-11-20T11:04:14;44.83;;;21.30;;
74995;SDS011;63545;51.690;5.202;2022-11-20T11:06:48;47.55;;;21.67;;
74995;SDS011;63545;51.690;5.202;2022-11-20T11:09:16;47.45;;;21.40;;
74995;SDS011;63545;51.690;5.202;2022-11-20T11:11:45;45.03;;;21.52;;
74995;SDS011;63545;51.690;5.202;2022-11-20T11:14:14;46.90;;;22.08;;
74995;SDS011;63545;51.690;5.202;2022-11-20T11:16:50;49.63;;;22.40;;
74995;SDS011;63545;51.690;5.202;2022-11-20T11:19:17;49.05;;;21.95;;
74995;SDS011;63545;51.690;5.202;2022-11-20T11:21:47;44.87;;;21.37;;
74995;SDS011;63545;51.690;5.202;2022-11-20T11:24:20;48.92;;;21.58;;
74995;SDS011;63545;51.690;5.202;2022-11-20T11:26:57;47.17;;;21.50;;
74995;SDS011;63545;51.690;5.202;2022-11-20T11:29:24;48.20;;;20.90;;
74995;SDS011;63545;51.690;5.202;2022-11-20T11:32:02;47.05;;;20.73;;
74995;SDS011;63545;51.690;5.202;2022-11-20T11:34:30;46.33;;;21.40;;
74995;SDS011;63545;51.690;5.202;2022-11-20T11:36:57;45.72;;;21.48;;
74995;SDS011;63545;51.690;5.202;2022-11-20T11:39:23;45.92;;;21.13;;
74995;SDS011;63545;51.690;5.202;2022-11-20T11:41:49;45.38;;;21.15;;
74995;SDS011;63545;51.690;5.202;2022-11-20T11:47:24;47.88;;;21.00;;
74995;SDS011;63545;51.690;5.202;2022-11-20T12:04:13;54.70;;;22.95;;
74995;SDS011;63545;51.690;5.202;2022-11-20T12:06:43;55.90;;;23.70;;
74995;SDS011;63545;51.690;5.202;2022-11-20T12:09:10;57.22;;;23.33;;
74995;SDS011;63545;51.690;5.202;2022-11-20T12:11:56;60.23;;;25.00;;
74995;SDS011;63545;51.690;5.202;2022-11-20T12:14:34;54.13;;;22.70;;
74995;SDS011;63545;51.690;5.202;2022-11-20T12:17:03;58.85;;;24.08;;
74995;SDS011;63545;51.690;5.202;2022-11-20T12:19:33;60.15;;;24.67;;
74995;SDS011;63545;51.690;5.202;2022-11-20T12:22:43;61.65;;;24.38;;
74995;SDS011;63545;51.690;5.202;2022-11-20T12:39:07;55.40;;;23.27;;
74995;SDS011;63545;51.690;5.202;2022-11-20T12:44:40;57.80;;;24.30;;
74995;SDS011;63545;51.690;5.202;2022-11-20T12:50:22;54.95;;;23.80;;
74995;SDS011;63545;51.690;5.202;2022-11-20T12:52:57;56.43;;;24.57;;
74995;SDS011;63545;51.690;5.202;2022-11-20T12:58:04;63.47;;;24.50;;
74995;SDS011;63545;51.690;5.202;2022-11-20T13:00:36;58.70;;;24.77;;
74995;SDS011;63545;51.690;5.202;2022-11-20T13:05:39;63.00;;;24.83;;
74995;SDS011;63545;51.690;5.202;2022-11-20T13:08:27;66.35;;;26.40;;
74995;SDS011;63545;51.690;5.202;2022-11-20T13:19:16;66.40;;;25.63;;
74995;SDS011;63545;51.690;5.202;2022-11-20T13:21:43;67.10;;;27.10;;
74995;SDS011;63545;51.690;5.202;2022-11-20T13:27:02;65.72;;;27.27;;
74995;SDS011;63545;51.690;5.202;2022-11-20T13:30:17;70.55;;;25.85;;
74995;SDS011;63545;51.690;5.202;2022-11-20T13:32:47;71.60;;;25.43;;
74995;SDS011;63545;51.690;5.202;2022-11-20T13:35:30;66.38;;;25.40;;
74995;SDS011;63545;51.690;5.202;2022-11-20T13:38:07;70.55;;;26.70;;
74995;SDS011;63545;51.690;5.202;2022-11-20T13:40:36;72.93;;;27.23;;
74995;SDS011;63545;51.690;5.202;2022-11-20T13:46:09;67.97;;;26.97;;
74995;SDS011;63545;51.690;5.202;2022-11-20T13:48:39;68.43;;;26.30;;
74995;SDS011;63545;51.690;5.202;2022-11-20T14:01:57;65.93;;;25.90;;
74995;SDS011;63545;51.690;5.202;2022-11-20T14:04:29;76.80;;;26.50;;
74995;SDS011;63545;51.690;5.202;2022-11-20T14:06:58;68.32;;;26.63;;
74995;SDS011;63545;51.690;5.202;2022-11-20T14:09:27;73.20;;;27.30;;
74995;SDS011;63545;51.690;5.202;2022-11-20T14:11:54;76.85;;;28.20;;
74995;SDS011;63545;51.690;5.202;2022-11-20T14:14:21;75.20;;;27.50;;
74995;SDS011;63545;51.690;5.202;2022-11-20T14:16:50;78.53;;;29.92;;
74995;SDS011;63545;51.690;5.202;2022-11-20T14:21:45;71.35;;;26.35;;
74995;SDS011;63545;51.690;5.202;2022-11-20T14:24:12;82.07;;;29.77;;
74995;SDS011;63545;51.690;5.202;2022-11-20T14:26:38;78.53;;;27.27;;
74995;SDS011;63545;51.690;5.202;2022-11-20T14:29:13;77.10;;;28.88;;
74995;SDS011;63545;51.690;5.202;2022-11-20T14:31:40;85.68;;;29.15;;
74995;SDS011;63545;51.690;5.202;2022-11-20T14:34:12;79.97;;;27.90;;
74995;SDS011;63545;51.690;5.202;2022-11-20T14:36:41;83.22;;;28.35;;
74995;SDS011;63545;51.690;5.202;2022-11-20T14:39:10;88.23;;;28.87;;
74995;SDS011;63545;51.690;5.202;2022-11-20T14:41:36;78.63;;;28.77;;
74995;SDS011;63545;51.690;5.202;2022-11-20T14:44:01;85.73;;;29.57;;
74995;SDS011;63545;51.690;5.202;2022-11-20T14:46:27;81.97;;;29.33;;
74995;SDS011;63545;51.690;5.202;2022-11-20T14:48:56;78.13;;;27.50;;
74995;SDS011;63545;51.690;5.202;2022-11-20T14:51:43;86.07;;;30.67;;
74995;SDS011;63545;51.690;5.202;2022-11-20T14:54:09;84.00;;;29.15;;
74995;SDS011;63545;51.690;5.202;2022-11-20T14:56:37;82.18;;;27.33;;
74995;SDS011;63545;51.690;5.202;2022-11-20T14:59:02;85.77;;;29.73;;
74995;SDS011;63545;51.690;5.202;2022-11-20T15:01:28;77.30;;;27.73;;
74995;SDS011;63545;51.690;5.202;2022-11-20T15:04:04;86.43;;;30.45;;
74995;SDS011;63545;51.690;5.202;2022-11-20T15:06:31;83.85;;;28.63;;
74995;SDS011;63545;51.690;5.202;2022-11-20T15:08:57;85.03;;;28.57;;
74995;SDS011;63545;51.690;5.202;2022-11-20T15:11:27;86.97;;;30.63;;
74995;SDS011;63545;51.690;5.202;2022-11-20T15:13:55;86.57;;;28.83;;
74995;SDS011;63545;51.690;5.202;2022-11-20T15:16:21;93.00;;;30.73;;
74995;SDS011;63545;51.690;5.202;2022-11-20T15:18:47;93.22;;;32.10;;
74995;SDS011;63545;51.690;5.202;2022-11-20T15:21:13;91.97;;;30.13;;
74995;SDS011;63545;51.690;5.202;2022-11-20T15:23:40;91.20;;;30.88;;
74995;SDS011;63545;51.690;5.202;2022-11-20T15:26:09;89.33;;;31.13;;
74995;SDS011;63545;51.690;5.202;2022-11-20T15:28:39;86.50;;;31.42;;
74995;SDS011;63545;51.690;5.202;2022-11-20T15:31:06;95.68;;;31.25;;
74995;SDS011;63545;51.690;5.202;2022-11-20T15:33:32;107.07;;;34.30;;
74995;SDS011;63545;51.690;5.202;2022-11-20T15:35:58;88.53;;;31.07;;
74995;SDS011;63545;51.690;5.202;2022-11-20T15:38:23;99.15;;;31.75;;
74995;SDS011;63545;51.690;5.202;2022-11-20T15:40:49;102.03;;;32.13;;
74995;SDS011;63545;51.690;5.202;2022-11-20T15:43:14;96.93;;;32.00;;
74995;SDS011;63545;51.690;5.202;2022-11-20T15:45:46;91.53;;;30.40;;
74995;SDS011;63545;51.690;5.202;2022-11-20T15:48:20;98.75;;;31.15;;
74995;SDS011;63545;51.690;5.202;2022-11-20T15:51:05;93.95;;;30.13;;
74995;SDS011;63545;51.690;5.202;2022-11-20T15:53:37;86.15;;;30.33;;
74995;SDS011;63545;51.690;5.202;2022-11-20T15:56:03;98.10;;;30.60;;
74995;SDS011;63545;51.690;5.202;2022-11-20T15:58:29;104.97;;;31.48;;
74995;SDS011;63545;51.690;5.202;2022-11-20T16:00:55;93.87;;;30.17;;
74995;SDS011;63545;51.690;5.202;2022-11-20T16:03:21;109.90;;;32.40;;
74995;SDS011;63545;51.690;5.202;2022-11-20T16:05:47;98.95;;;32.25;;
74995;SDS011;63545;51.690;5.202;2022-11-20T16:08:12;103.47;;;31.57;;
74995;SDS011;63545;51.690;5.202;2022-11-20T16:10:38;98.90;;;30.57;;
74995;SDS011;63545;51.690;5.202;2022-11-20T16:13:03;96.13;;;30.75;;
74995;SDS011;63545;51.690;5.202;2022-11-20T16:15:51;97.97;;;29.90;;
74995;SDS011;63545;51.690;5.202;2022-11-20T16:18:18;100.30;;;30.25;;
74995;SDS011;63545;51.690;5.202;2022-11-20T16:20:46;94.50;;;28.97;;